Miramar Marine Corps Air Station
KNKX : now visible

Airfield :











YOU CAN JOIN US ON...

 
LOGIN :

Register | Disclaimer

   EN    FR    IT 

 









Legend :    VFR   Marginal VFR   IFR   Intensive IFR   Very Intensive IFR
Visi :
Ceiling :
>= 8 km
>= 3000ft
5 to 8 km
1000 to 3000 ft
1500m to 5 km
500 to 1000 ft
800 to 1500m
200 to 500 ft
< 800m
< 200 ft
Symbols :   Thunderstorms  Fog  Heavy snow  Heavy precipitations  Wind > 20 kt







- Airport Elevation : 477 ft


KNKX - Miramar Marine Corps Air Station

CURRENT METAR :
  • 211555Z 31003KT 10SM CLR 22/16 A2991 RMK AO2 SLP123 T02170161

EXPIRED METARs :
  • 211514Z 02003KT 10SM SCT006 21/16 A2990 RMK AO2 T02060161
  • 211455Z 03003KT 10SM BKN006 20/15 A2990 RMK AO2 CIG 005V008 SLP120 T02000150 51009
  • 211434Z 06003KT 10SM BKN010 18/14 A2990 RMK AO2 T01830144
  • 211355Z 07004KT 10SM CLR 16/12 A2989 RMK AO2 SLP118 T01560122

TAF TAF KNKX
Valid from the 21 at 15:00 until the 22 at 15:00 UTC


2115/2215 VRB05KT 9999 BKN005 QNH2986INS
BECMG 2115/2117 VRB05KT 9999 FEW010 QNH2984INS
BECMG 2117/2119 29007KT 9999 SKC QNH2974INS
FM220330 VRB05KT 9999 SKC QNH2978INS T26/2121Z T17/2212Z
No reported NOTAMs for that airfield.



MET'MAP, your aeronautical weather chart ! - Copyright ORBIFLY December 2007 - Disclaimer

ORBIFLY MET'MAP TEAM :

Programming & Development : Alexandra Zaïnal
Concept & Development : Baudouin d'Aumeries
Co-Development & Prog : Marc-Olivier Méhu
Technical & hardware support : Manuel Goepfert

Contact : metmap@orbifly.com




SOURCES & CREDITS :

   NOAA       Earth
Advisory